sensor_id;sensor_type;location;lat;lon;timestamp;P1;durP1;ratioP1;P2;durP2;ratioP2
23236;SDS011;11787;52.018;8.570;2024-03-23T07:02:09;12.05;;;2.97;;
23236;SDS011;11787;52.018;8.570;2024-03-23T07:04:35;15.60;;;3.00;;
23236;SDS011;11787;52.018;8.570;2024-03-23T07:07:01;11.05;;;3.00;;
23236;SDS011;11787;52.018;8.570;2024-03-23T07:09:28;14.57;;;4.53;;
23236;SDS011;11787;52.018;8.570;2024-03-23T07:11:54;7.47;;;3.33;;
23236;SDS011;11787;52.018;8.570;2024-03-23T07:14:21;18.27;;;4.28;;
23236;SDS011;11787;52.018;8.570;2024-03-23T07:16:47;9.95;;;2.95;;
23236;SDS011;11787;52.018;8.570;2024-03-23T07:19:14;16.35;;;3.90;;
23236;SDS011;11787;52.018;8.570;2024-03-23T07:21:41;12.50;;;3.63;;
23236;SDS011;11787;52.018;8.570;2024-03-23T07:24:07;15.27;;;5.32;;
23236;SDS011;11787;52.018;8.570;2024-03-23T07:26:33;10.57;;;3.38;;
23236;SDS011;11787;52.018;8.570;2024-03-23T07:28:58;11.57;;;3.40;;
23236;SDS011;11787;52.018;8.570;2024-03-23T07:31:24;7.00;;;3.00;;
23236;SDS011;11787;52.018;8.570;2024-03-23T07:33:50;11.50;;;3.20;;
23236;SDS011;11787;52.018;8.570;2024-03-23T07:36:15;10.70;;;3.55;;
23236;SDS011;11787;52.018;8.570;2024-03-23T07:38:41;12.68;;;3.40;;
23236;SDS011;11787;52.018;8.570;2024-03-23T07:41:11;5.75;;;2.75;;
23236;SDS011;11787;52.018;8.570;2024-03-23T07:43:42;8.65;;;3.13;;
23236;SDS011;11787;52.018;8.570;2024-03-23T07:46:08;7.03;;;2.45;;
23236;SDS011;11787;52.018;8.570;2024-03-23T07:48:33;8.15;;;3.00;;
23236;SDS011;11787;52.018;8.570;2024-03-23T07:51:03;12.02;;;2.72;;
23236;SDS011;11787;52.018;8.570;2024-03-23T07:53:31;13.88;;;3.90;;
23236;SDS011;11787;52.018;8.570;2024-03-23T07:56:05;9.32;;;4.47;;
23236;SDS011;11787;52.018;8.570;2024-03-23T07:58:31;7.75;;;2.35;;
23236;SDS011;11787;52.018;8.570;2024-03-23T08:01:03;10.38;;;4.03;;
23236;SDS011;11787;52.018;8.570;2024-03-23T08:03:30;10.40;;;3.28;;
23236;SDS011;11787;52.018;8.570;2024-03-23T08:05:55;6.60;;;2.42;;
23236;SDS011;11787;52.018;8.570;2024-03-23T08:08:21;6.97;;;3.75;;
23236;SDS011;11787;52.018;8.570;2024-03-23T08:10:50;12.55;;;3.42;;
23236;SDS011;11787;52.018;8.570;2024-03-23T08:13:16;13.15;;;4.88;;
23236;SDS011;11787;52.018;8.570;2024-03-23T08:15:42;10.82;;;3.80;;
23236;SDS011;11787;52.018;8.570;2024-03-23T08:18:12;8.50;;;3.22;;
23236;SDS011;11787;52.018;8.570;2024-03-23T08:20:38;12.95;;;4.15;;
23236;SDS011;11787;52.018;8.570;2024-03-23T08:23:04;6.95;;;3.85;;
23236;SDS011;11787;52.018;8.570;2024-03-23T08:25:31;14.93;;;4.03;;
23236;SDS011;11787;52.018;8.570;2024-03-23T08:27:57;10.40;;;3.58;;
23236;SDS011;11787;52.018;8.570;2024-03-23T08:30:22;7.95;;;3.92;;
23236;SDS011;11787;52.018;8.570;2024-03-23T13:00:49;2.60;;;1.15;;
23236;SDS011;11787;52.018;8.570;2024-03-23T13:03:14;0.93;;;0.65;;
23236;SDS011;11787;52.018;8.570;2024-03-23T13:05:42;3.72;;;0.60;;
23236;SDS011;11787;52.018;8.570;2024-03-23T13:08:08;3.63;;;0.75;;
23236;SDS011;11787;52.018;8.570;2024-03-23T13:10:34;1.33;;;0.60;;
23236;SDS011;11787;52.018;8.570;2024-03-23T13:12:59;1.38;;;0.55;;
23236;SDS011;11787;52.018;8.570;2024-03-23T13:15:25;3.65;;;0.90;;
23236;SDS011;11787;52.018;8.570;2024-03-23T13:17:50;1.65;;;0.98;;
23236;SDS011;11787;52.018;8.570;2024-03-23T13:20:17;3.15;;;0.73;;
23236;SDS011;11787;52.018;8.570;2024-03-23T13:22:43;1.60;;;0.98;;
23236;SDS011;11787;52.018;8.570;2024-03-23T13:25:08;2.92;;;0.90;;
23236;SDS011;11787;52.018;8.570;2024-03-23T13:27:34;2.60;;;1.05;;
23236;SDS011;11787;52.018;8.570;2024-03-23T13:29:59;2.80;;;0.68;;
23236;SDS011;11787;52.018;8.570;2024-03-23T13:32:25;1.38;;;0.93;;
23236;SDS011;11787;52.018;8.570;2024-03-23T13:34:50;1.95;;;0.40;;
23236;SDS011;11787;52.018;8.570;2024-03-23T13:37:16;2.17;;;0.50;;
23236;SDS011;11787;52.018;8.570;2024-03-23T13:39:41;2.78;;;0.70;;
23236;SDS011;11787;52.018;8.570;2024-03-23T13:42:07;3.13;;;0.82;;
23236;SDS011;11787;52.018;8.570;2024-03-23T13:44:34;1.25;;;0.60;;
23236;SDS011;11787;52.018;8.570;2024-03-23T13:47:01;1.30;;;0.50;;
23236;SDS011;11787;52.018;8.570;2024-03-23T13:49:28;0.90;;;0.55;;
23236;SDS011;11787;52.018;8.570;2024-03-23T13:51:56;1.30;;;0.88;;
23236;SDS011;11787;52.018;8.570;2024-03-23T13:54:23;0.32;;;0.30;;
23236;SDS011;11787;52.018;8.570;2024-03-23T13:56:52;2.92;;;0.60;;
23236;SDS011;11787;52.018;8.570;2024-03-23T13:59:22;0.82;;;0.38;;
23236;SDS011;11787;52.018;8.570;2024-03-23T14:01:51;1.10;;;0.63;;
23236;SDS011;11787;52.018;8.570;2024-03-23T14:04:16;1.50;;;0.60;;
23236;SDS011;11787;52.018;8.570;2024-03-23T14:06:42;1.13;;;0.45;;
23236;SDS011;11787;52.018;8.570;2024-03-23T14:09:10;1.67;;;0.52;;
23236;SDS011;11787;52.018;8.570;2024-03-23T14:11:36;1.10;;;0.60;;
23236;SDS011;11787;52.018;8.570;2024-03-23T14:14:02;1.45;;;0.52;;
23236;SDS011;11787;52.018;8.570;2024-03-23T14:16:29;1.20;;;0.45;;
23236;SDS011;11787;52.018;8.570;2024-03-23T14:18:57;0.80;;;0.60;;
23236;SDS011;11787;52.018;8.570;2024-03-23T14:21:23;4.55;;;0.85;;
23236;SDS011;11787;52.018;8.570;2024-03-23T14:23:48;2.70;;;0.50;;
23236;SDS011;11787;52.018;8.570;2024-03-23T14:26:14;2.17;;;0.55;;
23236;SDS011;11787;52.018;8.570;2024-03-23T14:28:40;2.97;;;0.82;;
23236;SDS011;11787;52.018;8.570;2024-03-23T14:31:06;3.15;;;0.68;;
23236;SDS011;11787;52.018;8.570;2024-03-23T14:33:35;1.85;;;0.90;;
23236;SDS011;11787;52.018;8.570;2024-03-23T14:36:10;2.58;;;0.60;;
23236;SDS011;11787;52.018;8.570;2024-03-23T14:38:36;1.55;;;0.40;;
23236;SDS011;11787;52.018;8.570;2024-03-23T14:41:02;1.48;;;0.45;;
23236;SDS011;11787;52.018;8.570;2024-03-23T14:43:29;1.38;;;0.60;;
23236;SDS011;11787;52.018;8.570;2024-03-23T14:48:37;2.10;;;0.70;;
23236;SDS011;11787;52.018;8.570;2024-03-23T14:51:04;4.30;;;0.77;;
23236;SDS011;11787;52.018;8.570;2024-03-23T14:53:33;1.23;;;0.30;;
23236;SDS011;11787;52.018;8.570;2024-03-23T14:56:06;1.70;;;0.60;;
23236;SDS011;11787;52.018;8.570;2024-03-23T14:58:32;3.80;;;0.63;;
23236;SDS011;11787;52.018;8.570;2024-03-23T15:01:01;1.38;;;0.50;;
23236;SDS011;11787;52.018;8.570;2024-03-23T15:03:28;0.50;;;0.30;;
23236;SDS011;11787;52.018;8.570;2024-03-23T15:05:54;0.55;;;0.40;;
23236;SDS011;11787;52.018;8.570;2024-03-23T15:08:20;2.42;;;0.75;;
23236;SDS011;11787;52.018;8.570;2024-03-23T15:10:46;3.72;;;0.60;;
23236;SDS011;11787;52.018;8.570;2024-03-23T15:13:12;1.33;;;0.52;;
23236;SDS011;11787;52.018;8.570;2024-03-23T15:15:39;3.05;;;0.70;;
23236;SDS011;11787;52.018;8.570;2024-03-23T15:18:06;0.80;;;0.40;;
23236;SDS011;11787;52.018;8.570;2024-03-23T15:20:32;4.03;;;0.57;;
23236;SDS011;11787;52.018;8.570;2024-03-23T15:23:00;1.75;;;0.85;;
23236;SDS011;11787;52.018;8.570;2024-03-23T15:25:27;2.15;;;0.55;;
23236;SDS011;11787;52.018;8.570;2024-03-23T15:27:52;1.38;;;0.80;;
23236;SDS011;11787;52.018;8.570;2024-03-23T15:30:19;1.23;;;0.50;;
23236;SDS011;11787;52.018;8.570;2024-03-23T15:32:45;0.80;;;0.50;;
23236;SDS011;11787;52.018;8.570;2024-03-23T15:35:12;1.95;;;0.75;;
23236;SDS011;11787;52.018;8.570;2024-03-23T15:37:37;1.60;;;0.70;;
23236;SDS011;11787;52.018;8.570;2024-03-23T15:40:04;3.50;;;0.77;;
23236;SDS011;11787;52.018;8.570;2024-03-23T15:42:31;0.95;;;0.70;;
23236;SDS011;11787;52.018;8.570;2024-03-23T15:44:56;0.73;;;0.50;;
23236;SDS011;11787;52.018;8.570;2024-03-23T15:47:22;1.00;;;0.50;;
23236;SDS011;11787;52.018;8.570;2024-03-23T15:49:49;3.70;;;1.00;;
23236;SDS011;11787;52.018;8.570;2024-03-23T15:52:15;1.65;;;0.63;;
23236;SDS011;11787;52.018;8.570;2024-03-23T15:54:40;3.30;;;0.75;;
23236;SDS011;11787;52.018;8.570;2024-03-23T15:57:08;1.85;;;0.60;;
23236;SDS011;11787;52.018;8.570;2024-03-23T15:59:33;1.65;;;0.60;;
23236;SDS011;11787;52.018;8.570;2024-03-23T16:02:01;5.50;;;0.77;;
23236;SDS011;11787;52.018;8.570;2024-03-23T16:04:27;1.33;;;0.60;;
23236;SDS011;11787;52.018;8.570;2024-03-23T16:06:53;1.77;;;0.45;;
23236;SDS011;11787;52.018;8.570;2024-03-23T16:09:19;3.65;;;0.70;;
23236;SDS011;11787;52.018;8.570;2024-03-23T16:11:44;4.13;;;0.82;;
23236;SDS011;11787;52.018;8.570;2024-03-23T16:14:10;4.10;;;0.85;;
23236;SDS011;11787;52.018;8.570;2024-03-23T16:16:35;1.75;;;0.57;;
23236;SDS011;11787;52.018;8.570;2024-03-23T16:19:01;1.92;;;0.70;;
23236;SDS011;11787;52.018;8.570;2024-03-23T16:21:27;1.70;;;1.00;;
23236;SDS011;11787;52.018;8.570;2024-03-23T16:23:52;1.88;;;0.88;;
23236;SDS011;11787;52.018;8.570;2024-03-23T16:26:18;5.68;;;1.10;;
23236;SDS011;11787;52.018;8.570;2024-03-23T16:28:43;2.50;;;0.73;;
23236;SDS011;11787;52.018;8.570;2024-03-23T16:31:10;1.92;;;0.60;;
23236;SDS011;11787;52.018;8.570;2024-03-23T16:33:36;3.80;;;0.73;;
23236;SDS011;11787;52.018;8.570;2024-03-23T16:36:03;3.20;;;1.13;;
23236;SDS011;11787;52.018;8.570;2024-03-23T16:38:42;1.33;;;0.60;;
23236;SDS011;11787;52.018;8.570;2024-03-23T16:41:08;0.93;;;0.68;;
23236;SDS011;11787;52.018;8.570;2024-03-23T16:43:38;3.13;;;0.80;;
23236;SDS011;11787;52.018;8.570;2024-03-23T16:46:11;3.53;;;0.80;;
23236;SDS011;11787;52.018;8.570;2024-03-23T16:48:39;3.08;;;1.10;;
23236;SDS011;11787;52.018;8.570;2024-03-23T16:51:05;1.35;;;0.60;;
23236;SDS011;11787;52.018;8.570;2024-03-23T16:53:31;2.38;;;0.52;;
23236;SDS011;11787;52.018;8.570;2024-03-23T16:55:57;1.83;;;0.77;;
23236;SDS011;11787;52.018;8.570;2024-03-23T16:58:27;1.45;;;0.95;;
23236;SDS011;11787;52.018;8.570;2024-03-23T17:00:55;3.72;;;0.65;;
23236;SDS011;11787;52.018;8.570;2024-03-23T17:03:25;0.77;;;0.40;;
23236;SDS011;11787;52.018;8.570;2024-03-23T17:05:51;2.72;;;0.55;;
23236;SDS011;11787;52.018;8.570;2024-03-23T17:08:17;0.52;;;0.30;;
23236;SDS011;11787;52.018;8.570;2024-03-23T17:10:42;0.40;;;0.40;;
23236;SDS011;11787;52.018;8.570;2024-03-23T17:13:08;1.58;;;0.60;;
23236;SDS011;11787;52.018;8.570;2024-03-23T17:15:41;2.28;;;0.82;;
23236;SDS011;11787;52.018;8.570;2024-03-23T17:18:08;1.27;;;0.50;;
23236;SDS011;11787;52.018;8.570;2024-03-23T17:20:33;0.43;;;0.32;;
23236;SDS011;11787;52.018;8.570;2024-03-23T17:22:59;0.98;;;0.40;;
23236;SDS011;11787;52.018;8.570;2024-03-23T17:25:26;3.92;;;0.50;;
23236;SDS011;11787;52.018;8.570;2024-03-23T17:27:51;2.97;;;0.90;;
23236;SDS011;11787;52.018;8.570;2024-03-23T17:30:17;0.95;;;0.60;;
23236;SDS011;11787;52.018;8.570;2024-03-23T17:32:43;1.17;;;0.52;;
23236;SDS011;11787;52.018;8.570;2024-03-23T17:35:12;1.85;;;0.90;;
23236;SDS011;11787;52.018;8.570;2024-03-23T17:37:39;4.78;;;1.17;;
23236;SDS011;11787;52.018;8.570;2024-03-23T17:40:05;5.28;;;1.73;;
23236;SDS011;11787;52.018;8.570;2024-03-23T17:42:33;2.35;;;1.00;;
23236;SDS011;11787;52.018;8.570;2024-03-23T17:44:59;1.80;;;0.55;;
23236;SDS011;11787;52.018;8.570;2024-03-23T17:47:25;1.75;;;0.77;;
23236;SDS011;11787;52.018;8.570;2024-03-23T17:49:52;0.73;;;0.43;;
23236;SDS011;11787;52.018;8.570;2024-03-23T17:52:17;2.65;;;0.90;;
23236;SDS011;11787;52.018;8.570;2024-03-23T17:54:43;3.50;;;0.90;;
23236;SDS011;11787;52.018;8.570;2024-03-23T17:57:09;4.28;;;0.60;;
23236;SDS011;11787;52.018;8.570;2024-03-23T17:59:34;3.75;;;1.08;;
23236;SDS011;11787;52.018;8.570;2024-03-23T18:02:00;5.32;;;0.60;;
23236;SDS011;11787;52.018;8.570;2024-03-23T18:04:25;1.00;;;0.52;;
23236;SDS011;11787;52.018;8.570;2024-03-23T18:06:51;1.58;;;0.45;;
23236;SDS011;11787;52.018;8.570;2024-03-23T18:09:17;1.85;;;0.50;;
23236;SDS011;11787;52.018;8.570;2024-03-23T18:11:43;1.50;;;0.65;;
23236;SDS011;11787;52.018;8.570;2024-03-23T18:14:09;3.13;;;0.65;;
23236;SDS011;11787;52.018;8.570;2024-03-23T18:16:34;2.97;;;0.73;;
23236;SDS011;11787;52.018;8.570;2024-03-23T18:19:00;1.55;;;0.70;;
23236;SDS011;11787;52.018;8.570;2024-03-23T18:21:25;1.75;;;0.90;;
23236;SDS011;11787;52.018;8.570;2024-03-23T18:23:51;1.38;;;0.70;;
23236;SDS011;11787;52.018;8.570;2024-03-23T18:26:17;2.42;;;0.73;;
23236;SDS011;11787;52.018;8.570;2024-03-23T18:28:47;2.22;;;1.15;;
23236;SDS011;11787;52.018;8.570;2024-03-23T18:31:16;0.85;;;0.50;;
23236;SDS011;11787;52.018;8.570;2024-03-23T18:33:43;4.78;;;0.70;;
23236;SDS011;11787;52.018;8.570;2024-03-23T18:36:09;0.40;;;0.30;;
23236;SDS011;11787;52.018;8.570;2024-03-23T18:38:35;0.73;;;0.40;;
23236;SDS011;11787;52.018;8.570;2024-03-23T18:41:02;2.80;;;0.75;;
23236;SDS011;11787;52.018;8.570;2024-03-23T18:43:27;0.52;;;0.28;;
23236;SDS011;11787;52.018;8.570;2024-03-23T18:45:53;1.83;;;0.63;;
23236;SDS011;11787;52.018;8.570;2024-03-23T18:48:19;0.98;;;0.70;;
23236;SDS011;11787;52.018;8.570;2024-03-23T18:50:44;2.75;;;0.95;;
23236;SDS011;11787;52.018;8.570;2024-03-23T18:53:10;2.28;;;0.35;;
23236;SDS011;11787;52.018;8.570;2024-03-23T18:55:37;2.40;;;0.50;;
23236;SDS011;11787;52.018;8.570;2024-03-23T18:58:03;2.17;;;0.50;;
23236;SDS011;11787;52.018;8.570;2024-03-23T19:00:32;1.08;;;0.40;;
23236;SDS011;11787;52.018;8.570;2024-03-23T19:02:58;2.22;;;1.17;;
23236;SDS011;11787;52.018;8.570;2024-03-23T19:05:24;0.47;;;0.30;;
23236;SDS011;11787;52.018;8.570;2024-03-23T19:07:50;2.08;;;0.65;;
23236;SDS011;11787;52.018;8.570;2024-03-23T19:10:17;0.30;;;0.30;;
23236;SDS011;11787;52.018;8.570;2024-03-23T19:12:45;0.60;;;0.40;;
23236;SDS011;11787;52.018;8.570;2024-03-23T19:15:12;0.85;;;0.60;;
23236;SDS011;11787;52.018;8.570;2024-03-23T19:17:37;1.50;;;0.60;;
23236;SDS011;11787;52.018;8.570;2024-03-23T19:20:03;2.28;;;0.70;;
23236;SDS011;11787;52.018;8.570;2024-03-23T19:22:29;1.40;;;0.60;;
23236;SDS011;11787;52.018;8.570;2024-03-23T19:24:55;0.98;;;0.40;;
23236;SDS011;11787;52.018;8.570;2024-03-23T19:27:21;1.17;;;0.40;;
23236;SDS011;11787;52.018;8.570;2024-03-23T19:29:47;0.50;;;0.45;;
23236;SDS011;11787;52.018;8.570;2024-03-23T19:32:12;2.90;;;0.52;;
23236;SDS011;11787;52.018;8.570;2024-03-23T19:34:38;2.22;;;0.55;;
23236;SDS011;11787;52.018;8.570;2024-03-23T19:37:03;2.10;;;0.80;;
23236;SDS011;11787;52.018;8.570;2024-03-23T19:39:30;0.80;;;0.30;;
23236;SDS011;11787;52.018;8.570;2024-03-23T19:41:56;1.15;;;0.55;;
23236;SDS011;11787;52.018;8.570;2024-03-23T19:44:21;0.45;;;0.43;;
23236;SDS011;11787;52.018;8.570;2024-03-23T19:46:47;0.77;;;0.40;;
23236;SDS011;11787;52.018;8.570;2024-03-23T19:49:13;3.38;;;0.60;;
23236;SDS011;11787;52.018;8.570;2024-03-23T19:51:38;2.58;;;0.40;;
23236;SDS011;11787;52.018;8.570;2024-03-23T19:54:04;1.58;;;0.35;;
23236;SDS011;11787;52.018;8.570;2024-03-23T19:56:29;0.47;;;0.30;;
23236;SDS011;11787;52.018;8.570;2024-03-23T19:58:55;2.00;;;0.57;;
23236;SDS011;11787;52.018;8.570;2024-03-23T20:01:20;0.95;;;0.40;;
23236;SDS011;11787;52.018;8.570;2024-03-23T20:03:49;2.58;;;0.45;;
23236;SDS011;11787;52.018;8.570;2024-03-23T20:06:15;4.35;;;0.60;;
23236;SDS011;11787;52.018;8.570;2024-03-23T20:08:42;0.73;;;0.40;;
23236;SDS011;11787;52.018;8.570;2024-03-23T20:11:08;2.13;;;0.57;;
23236;SDS011;11787;52.018;8.570;2024-03-23T20:13:37;1.45;;;0.47;;
23236;SDS011;11787;52.018;8.570;2024-03-23T20:16:02;0.80;;;0.60;;
23236;SDS011;11787;52.018;8.570;2024-03-23T20:18:28;2.72;;;0.73;;
23236;SDS011;11787;52.018;8.570;2024-03-23T20:20:55;1.90;;;0.50;;
23236;SDS011;11787;52.018;8.570;2024-03-23T20:23:23;1.58;;;0.68;;
23236;SDS011;11787;52.018;8.570;2024-03-23T20:25:55;3.42;;;0.93;;
23236;SDS011;11787;52.018;8.570;2024-03-23T20:28:22;2.92;;;0.90;;
23236;SDS011;11787;52.018;8.570;2024-03-23T20:30:58;3.88;;;1.20;;
23236;SDS011;11787;52.018;8.570;2024-03-23T20:33:25;10.20;;;1.83;;
23236;SDS011;11787;52.018;8.570;2024-03-23T20:35:51;1.75;;;1.05;;
23236;SDS011;11787;52.018;8.570;2024-03-23T20:38:20;1.35;;;0.85;;
23236;SDS011;11787;52.018;8.570;2024-03-23T20:40:50;2.13;;;0.88;;
23236;SDS011;11787;52.018;8.570;2024-03-23T20:43:20;3.72;;;1.00;;
23236;SDS011;11787;52.018;8.570;2024-03-23T20:45:53;2.05;;;1.10;;
23236;SDS011;11787;52.018;8.570;2024-03-23T20:48:26;1.33;;;0.98;;
23236;SDS011;11787;52.018;8.570;2024-03-23T20:51:01;2.00;;;1.00;;
23236;SDS011;11787;52.018;8.570;2024-03-23T20:53:28;1.63;;;0.90;;
23236;SDS011;11787;52.018;8.570;2024-03-23T20:55:54;1.73;;;1.20;;
23236;SDS011;11787;52.018;8.570;2024-03-23T20:58:21;3.80;;;1.00;;
23236;SDS011;11787;52.018;8.570;2024-03-23T21:00:48;1.35;;;0.70;;
23236;SDS011;11787;52.018;8.570;2024-03-23T21:03:14;1.58;;;0.85;;
23236;SDS011;11787;52.018;8.570;2024-03-23T21:05:40;1.27;;;0.95;;
23236;SDS011;11787;52.018;8.570;2024-03-23T21:08:06;2.50;;;1.20;;
23236;SDS011;11787;52.018;8.570;2024-03-23T21:10:32;3.33;;;1.27;;
23236;SDS011;11787;52.018;8.570;2024-03-23T21:12:57;3.78;;;0.98;;
23236;SDS011;11787;52.018;8.570;2024-03-23T21:15:23;4.15;;;0.88;;
23236;SDS011;11787;52.018;8.570;2024-03-23T21:17:49;5.20;;;1.15;;
23236;SDS011;11787;52.018;8.570;2024-03-23T21:20:14;2.25;;;1.15;;
23236;SDS011;11787;52.018;8.570;2024-03-23T21:22:40;2.00;;;1.52;;
23236;SDS011;11787;52.018;8.570;2024-03-23T21:25:05;3.15;;;0.95;;
23236;SDS011;11787;52.018;8.570;2024-03-23T21:27:31;1.52;;;0.90;;
23236;SDS011;11787;52.018;8.570;2024-03-23T21:29:57;1.88;;;0.98;;
23236;SDS011;11787;52.018;8.570;2024-03-23T21:32:22;1.73;;;0.90;;
23236;SDS011;11787;52.018;8.570;2024-03-23T21:34:49;5.03;;;1.80;;
23236;SDS011;11787;52.018;8.570;2024-03-23T21:37:15;1.50;;;0.90;;
23236;SDS011;11787;52.018;8.570;2024-03-23T21:39:40;1.35;;;0.90;;
23236;SDS011;11787;52.018;8.570;2024-03-23T21:42:07;4.80;;;1.58;;
23236;SDS011;11787;52.018;8.570;2024-03-23T21:44:33;2.83;;;1.00;;
23236;SDS011;11787;52.018;8.570;2024-03-23T21:46:59;1.98;;;0.82;;
23236;SDS011;11787;52.018;8.570;2024-03-23T21:49:25;1.63;;;1.10;;
23236;SDS011;11787;52.018;8.570;2024-03-23T21:51:51;1.40;;;1.13;;
23236;SDS011;11787;52.018;8.570;2024-03-23T21:54:17;7.65;;;1.50;;
23236;SDS011;11787;52.018;8.570;2024-03-23T21:56:43;1.67;;;1.08;;
23236;SDS011;11787;52.018;8.570;2024-03-23T21:59:09;1.75;;;0.90;;
23236;SDS011;11787;52.018;8.570;2024-03-23T22:01:35;5.60;;;1.50;;
23236;SDS011;11787;52.018;8.570;2024-03-23T22:04:04;2.50;;;1.30;;
23236;SDS011;11787;52.018;8.570;2024-03-23T22:06:29;0.93;;;0.90;;
23236;SDS011;11787;52.018;8.570;2024-03-23T22:08:55;2.97;;;1.27;;
23236;SDS011;11787;52.018;8.570;2024-03-23T22:11:22;6.32;;;1.13;;
23236;SDS011;11787;52.018;8.570;2024-03-23T22:13:47;2.70;;;1.30;;
23236;SDS011;11787;52.018;8.570;2024-03-23T22:16:13;3.88;;;1.45;;
23236;SDS011;11787;52.018;8.570;2024-03-23T22:18:38;2.75;;;1.38;;
23236;SDS011;11787;52.018;8.570;2024-03-23T22:21:04;3.63;;;1.52;;
23236;SDS011;11787;52.018;8.570;2024-03-23T22:23:30;3.45;;;1.73;;
23236;SDS011;11787;52.018;8.570;2024-03-23T22:25:56;3.25;;;1.60;;
23236;SDS011;11787;52.018;8.570;2024-03-23T22:28:24;2.70;;;1.73;;
23236;SDS011;11787;52.018;8.570;2024-03-23T22:31:02;2.65;;;1.40;;
23236;SDS011;11787;52.018;8.570;2024-03-23T22:33:29;2.55;;;1.35;;
23236;SDS011;11787;52.018;8.570;2024-03-23T22:35:56;6.65;;;1.60;;
23236;SDS011;11787;52.018;8.570;2024-03-23T22:38:22;2.88;;;1.50;;
23236;SDS011;11787;52.018;8.570;2024-03-23T22:41:02;5.05;;;1.45;;
23236;SDS011;11787;52.018;8.570;2024-03-23T22:43:29;2.22;;;1.48;;
23236;SDS011;11787;52.018;8.570;2024-03-23T22:45:57;3.38;;;1.65;;
23236;SDS011;11787;52.018;8.570;2024-03-23T22:48:26;3.47;;;1.92;;
23236;SDS011;11787;52.018;8.570;2024-03-23T22:50:53;4.18;;;1.95;;
23236;SDS011;11787;52.018;8.570;2024-03-23T22:53:20;2.78;;;1.80;;
23236;SDS011;11787;52.018;8.570;2024-03-23T22:55:50;4.05;;;1.98;;
23236;SDS011;11787;52.018;8.570;2024-03-23T22:58:17;4.00;;;1.70;;
23236;SDS011;11787;52.018;8.570;2024-03-23T23:04:35;2.33;;;1.25;;
23236;SDS011;11787;52.018;8.570;2024-03-23T23:07:01;4.18;;;2.10;;
23236;SDS011;11787;52.018;8.570;2024-03-23T23:09:27;2.60;;;1.65;;
23236;SDS011;11787;52.018;8.570;2024-03-23T23:11:53;2.17;;;1.85;;
23236;SDS011;11787;52.018;8.570;2024-03-23T23:14:19;4.47;;;1.95;;
23236;SDS011;11787;52.018;8.570;2024-03-23T23:16:45;2.85;;;1.73;;
23236;SDS011;11787;52.018;8.570;2024-03-23T23:19:10;5.90;;;2.00;;
23236;SDS011;11787;52.018;8.570;2024-03-23T23:21:36;3.33;;;1.67;;
23236;SDS011;11787;52.018;8.570;2024-03-23T23:24:02;3.92;;;1.98;;
23236;SDS011;11787;52.018;8.570;2024-03-23T23:26:27;3.83;;;2.20;;
23236;SDS011;11787;52.018;8.570;2024-03-23T23:28:53;3.83;;;2.00;;
23236;SDS011;11787;52.018;8.570;2024-03-23T23:31:19;3.92;;;1.67;;
23236;SDS011;11787;52.018;8.570;2024-03-23T23:33:44;3.55;;;2.33;;
23236;SDS011;11787;52.018;8.570;2024-03-23T23:36:10;3.22;;;2.08;;
23236;SDS011;11787;52.018;8.570;2024-03-23T23:38:36;4.22;;;2.30;;
23236;SDS011;11787;52.018;8.570;2024-03-23T23:41:01;5.00;;;2.35;;
23236;SDS011;11787;52.018;8.570;2024-03-23T23:43:27;4.13;;;2.35;;
23236;SDS011;11787;52.018;8.570;2024-03-23T23:45:53;5.78;;;2.45;;
23236;SDS011;11787;52.018;8.570;2024-03-23T23:48:20;4.35;;;2.10;;
23236;SDS011;11787;52.018;8.570;2024-03-23T23:50:45;6.63;;;2.40;;
23236;SDS011;11787;52.018;8.570;2024-03-23T23:53:11;7.13;;;2.88;;
23236;SDS011;11787;52.018;8.570;2024-03-23T23:55:37;5.32;;;3.25;;
23236;SDS011;11787;52.018;8.570;2024-03-23T23:58:05;5.45;;;2.92;;
